sensor_id;sensor_type;location;lat;lon;timestamp;P1;durP1;ratioP1;P2;durP2;ratioP2
64291;SDS011;50628;51.008;13.658;2023-03-01T00:02:39;33.53;;;18.43;;
64291;SDS011;50628;51.008;13.658;2023-03-01T00:07:41;26.63;;;17.87;;
64291;SDS011;50628;51.008;13.658;2023-03-01T00:12:43;24.97;;;17.40;;
64291;SDS011;50628;51.008;13.658;2023-03-01T00:17:47;26.00;;;16.33;;
64291;SDS011;50628;51.008;13.658;2023-03-01T00:22:50;22.30;;;14.37;;
64291;SDS011;50628;51.008;13.658;2023-03-01T00:27:52;23.33;;;16.03;;
64291;SDS011;50628;51.008;13.658;2023-03-01T00:32:55;27.07;;;15.30;;
64291;SDS011;50628;51.008;13.658;2023-03-01T00:38:42;27.17;;;16.93;;
64291;SDS011;50628;51.008;13.658;2023-03-01T00:43:46;22.17;;;14.27;;
64291;SDS011;50628;51.008;13.658;2023-03-01T00:48:50;25.17;;;15.80;;
64291;SDS011;50628;51.008;13.658;2023-03-01T00:53:52;25.10;;;16.23;;
64291;SDS011;50628;51.008;13.658;2023-03-01T00:58:56;21.83;;;14.40;;
64291;SDS011;50628;51.008;13.658;2023-03-01T01:04:00;24.90;;;15.33;;
64291;SDS011;50628;51.008;13.658;2023-03-01T01:09:05;24.23;;;15.67;;
64291;SDS011;50628;51.008;13.658;2023-03-01T01:14:08;26.23;;;15.43;;
64291;SDS011;50628;51.008;13.658;2023-03-01T01:19:11;23.53;;;15.47;;
64291;SDS011;50628;51.008;13.658;2023-03-01T01:24:15;24.30;;;16.00;;
64291;SDS011;50628;51.008;13.658;2023-03-01T01:29:17;28.30;;;16.33;;
64291;SDS011;50628;51.008;13.658;2023-03-01T01:34:21;26.83;;;15.53;;
64291;SDS011;50628;51.008;13.658;2023-03-01T01:39:23;29.30;;;18.47;;
64291;SDS011;50628;51.008;13.658;2023-03-01T01:44:26;31.03;;;19.93;;
64291;SDS011;50628;51.008;13.658;2023-03-01T01:49:32;30.30;;;16.80;;
64291;SDS011;50628;51.008;13.658;2023-03-01T01:54:39;21.80;;;14.77;;
64291;SDS011;50628;51.008;13.658;2023-03-01T01:59:46;22.87;;;14.77;;
64291;SDS011;50628;51.008;13.658;2023-03-01T02:04:55;25.77;;;15.17;;
64291;SDS011;50628;51.008;13.658;2023-03-01T02:10:10;28.57;;;18.97;;
64291;SDS011;50628;51.008;13.658;2023-03-01T02:15:16;31.23;;;20.93;;
64291;SDS011;50628;51.008;13.658;2023-03-01T02:20:27;31.53;;;19.97;;
64291;SDS011;50628;51.008;13.658;2023-03-01T02:25:39;28.53;;;19.47;;
64291;SDS011;50628;51.008;13.658;2023-03-01T02:30:49;23.20;;;16.13;;
64291;SDS011;50628;51.008;13.658;2023-03-01T02:36:12;24.20;;;15.37;;
64291;SDS011;50628;51.008;13.658;2023-03-01T02:41:17;22.20;;;14.70;;
64291;SDS011;50628;51.008;13.658;2023-03-01T02:46:23;22.00;;;14.87;;
64291;SDS011;50628;51.008;13.658;2023-03-01T02:51:30;21.30;;;13.20;;
64291;SDS011;50628;51.008;13.658;2023-03-01T02:56:43;21.80;;;13.30;;
64291;SDS011;50628;51.008;13.658;2023-03-01T03:01:50;20.80;;;13.27;;
64291;SDS011;50628;51.008;13.658;2023-03-01T03:06:53;21.07;;;13.07;;
64291;SDS011;50628;51.008;13.658;2023-03-01T03:11:55;21.50;;;13.10;;
64291;SDS011;50628;51.008;13.658;2023-03-01T03:16:58;23.00;;;14.57;;
64291;SDS011;50628;51.008;13.658;2023-03-01T03:22:00;25.43;;;15.07;;
64291;SDS011;50628;51.008;13.658;2023-03-01T03:27:02;27.57;;;16.03;;
64291;SDS011;50628;51.008;13.658;2023-03-01T03:32:06;23.37;;;16.30;;
64291;SDS011;50628;51.008;13.658;2023-03-01T03:37:07;21.87;;;14.20;;
64291;SDS011;50628;51.008;13.658;2023-03-01T03:42:29;25.70;;;15.83;;
64291;SDS011;50628;51.008;13.658;2023-03-01T03:47:33;27.57;;;18.90;;
64291;SDS011;50628;51.008;13.658;2023-03-01T03:52:35;30.77;;;18.37;;
64291;SDS011;50628;51.008;13.658;2023-03-01T03:57:37;27.80;;;17.57;;
64291;SDS011;50628;51.008;13.658;2023-03-01T04:02:40;19.30;;;14.30;;
64291;SDS011;50628;51.008;13.658;2023-03-01T04:07:43;25.30;;;15.07;;
64291;SDS011;50628;51.008;13.658;2023-03-01T04:12:46;24.57;;;15.57;;
64291;SDS011;50628;51.008;13.658;2023-03-01T04:17:50;22.23;;;14.30;;
64291;SDS011;50628;51.008;13.658;2023-03-01T04:22:56;24.63;;;14.93;;
64291;SDS011;50628;51.008;13.658;2023-03-01T04:27:59;23.97;;;15.00;;
64291;SDS011;50628;51.008;13.658;2023-03-01T04:33:05;23.33;;;15.07;;
64291;SDS011;50628;51.008;13.658;2023-03-01T04:38:11;25.77;;;14.47;;
64291;SDS011;50628;51.008;13.658;2023-03-01T04:43:13;25.63;;;15.73;;
64291;SDS011;50628;51.008;13.658;2023-03-01T04:48:17;39.07;;;18.80;;
64291;SDS011;50628;51.008;13.658;2023-03-01T04:53:19;30.83;;;19.30;;
64291;SDS011;50628;51.008;13.658;2023-03-01T04:58:21;30.40;;;18.23;;
64291;SDS011;50628;51.008;13.658;2023-03-01T05:03:24;26.83;;;17.17;;
64291;SDS011;50628;51.008;13.658;2023-03-01T05:08:26;26.20;;;16.70;;
64291;SDS011;50628;51.008;13.658;2023-03-01T05:13:28;28.20;;;16.60;;
64291;SDS011;50628;51.008;13.658;2023-03-01T05:18:32;28.97;;;17.33;;
64291;SDS011;50628;51.008;13.658;2023-03-01T05:23:35;28.77;;;17.77;;
64291;SDS011;50628;51.008;13.658;2023-03-01T05:28:37;24.60;;;14.87;;
64291;SDS011;50628;51.008;13.658;2023-03-01T05:33:41;25.30;;;15.57;;
64291;SDS011;50628;51.008;13.658;2023-03-01T05:38:43;21.43;;;14.83;;
64291;SDS011;50628;51.008;13.658;2023-03-01T05:43:45;26.53;;;15.70;;
64291;SDS011;50628;51.008;13.658;2023-03-01T05:48:49;30.53;;;16.77;;
64291;SDS011;50628;51.008;13.658;2023-03-01T05:53:50;27.87;;;16.53;;
64291;SDS011;50628;51.008;13.658;2023-03-01T05:58:52;30.03;;;18.23;;
64291;SDS011;50628;51.008;13.658;2023-03-01T06:03:56;29.10;;;16.73;;
64291;SDS011;50628;51.008;13.658;2023-03-01T06:08:58;26.83;;;15.07;;
64291;SDS011;50628;51.008;13.658;2023-03-01T06:14:00;29.27;;;16.03;;
64291;SDS011;50628;51.008;13.658;2023-03-01T06:19:03;23.90;;;15.60;;
64291;SDS011;50628;51.008;13.658;2023-03-01T06:24:05;26.03;;;14.60;;
64291;SDS011;50628;51.008;13.658;2023-03-01T06:29:08;28.73;;;15.90;;
64291;SDS011;50628;51.008;13.658;2023-03-01T06:34:11;28.13;;;17.30;;
64291;SDS011;50628;51.008;13.658;2023-03-01T06:39:14;28.63;;;17.00;;
64291;SDS011;50628;51.008;13.658;2023-03-01T06:44:17;31.83;;;18.20;;
64291;SDS011;50628;51.008;13.658;2023-03-01T06:49:21;29.13;;;17.03;;
64291;SDS011;50628;51.008;13.658;2023-03-01T06:54:23;33.53;;;20.57;;
64291;SDS011;50628;51.008;13.658;2023-03-01T06:59:25;30.67;;;20.60;;
64291;SDS011;50628;51.008;13.658;2023-03-01T07:04:28;38.57;;;21.03;;
64291;SDS011;50628;51.008;13.658;2023-03-01T07:09:30;51.90;;;24.30;;
64291;SDS011;50628;51.008;13.658;2023-03-01T07:14:32;37.57;;;22.37;;
64291;SDS011;50628;51.008;13.658;2023-03-01T07:19:36;39.23;;;21.90;;
64291;SDS011;50628;51.008;13.658;2023-03-01T07:24:37;41.57;;;21.97;;
64291;SDS011;50628;51.008;13.658;2023-03-01T07:29:39;38.90;;;22.90;;
64291;SDS011;50628;51.008;13.658;2023-03-01T07:34:42;37.27;;;21.33;;
64291;SDS011;50628;51.008;13.658;2023-03-01T07:39:44;42.13;;;22.70;;
64291;SDS011;50628;51.008;13.658;2023-03-01T07:44:46;52.37;;;22.03;;
64291;SDS011;50628;51.008;13.658;2023-03-01T07:49:49;48.13;;;23.73;;
64291;SDS011;50628;51.008;13.658;2023-03-01T07:54:51;37.27;;;23.70;;
64291;SDS011;50628;51.008;13.658;2023-03-01T07:59:53;43.80;;;23.07;;
64291;SDS011;50628;51.008;13.658;2023-03-01T08:04:56;64.87;;;25.57;;
64291;SDS011;50628;51.008;13.658;2023-03-01T08:09:58;33.00;;;20.47;;
64291;SDS011;50628;51.008;13.658;2023-03-01T08:15:00;42.20;;;26.63;;
64291;SDS011;50628;51.008;13.658;2023-03-01T08:20:04;40.83;;;22.60;;
64291;SDS011;50628;51.008;13.658;2023-03-01T08:25:07;49.10;;;23.33;;
64291;SDS011;50628;51.008;13.658;2023-03-01T08:30:10;46.73;;;24.07;;
64291;SDS011;50628;51.008;13.658;2023-03-01T08:35:14;48.63;;;23.07;;
64291;SDS011;50628;51.008;13.658;2023-03-01T08:40:16;52.73;;;25.40;;
64291;SDS011;50628;51.008;13.658;2023-03-01T08:45:17;46.50;;;25.47;;
64291;SDS011;50628;51.008;13.658;2023-03-01T08:50:21;43.23;;;26.03;;
64291;SDS011;50628;51.008;13.658;2023-03-01T08:55:24;60.43;;;26.33;;
64291;SDS011;50628;51.008;13.658;2023-03-01T09:00:26;49.67;;;25.73;;
64291;SDS011;50628;51.008;13.658;2023-03-01T09:05:30;47.90;;;25.00;;
64291;SDS011;50628;51.008;13.658;2023-03-01T09:10:32;38.03;;;23.83;;
64291;SDS011;50628;51.008;13.658;2023-03-01T09:15:38;44.10;;;25.03;;
64291;SDS011;50628;51.008;13.658;2023-03-01T09:20:41;45.17;;;25.20;;
64291;SDS011;50628;51.008;13.658;2023-03-01T09:25:43;34.70;;;24.07;;
64291;SDS011;50628;51.008;13.658;2023-03-01T09:30:45;48.73;;;24.17;;
64291;SDS011;50628;51.008;13.658;2023-03-01T09:35:48;36.83;;;23.83;;
64291;SDS011;50628;51.008;13.658;2023-03-01T09:40:50;37.20;;;21.57;;
64291;SDS011;50628;51.008;13.658;2023-03-01T09:45:53;37.57;;;21.73;;
64291;SDS011;50628;51.008;13.658;2023-03-01T09:50:58;54.33;;;22.27;;
64291;SDS011;50628;51.008;13.658;2023-03-01T09:56:10;63.77;;;28.47;;
64291;SDS011;50628;51.008;13.658;2023-03-01T10:01:29;46.10;;;21.07;;
64291;SDS011;50628;51.008;13.658;2023-03-01T10:06:36;34.97;;;21.00;;
64291;SDS011;50628;51.008;13.658;2023-03-01T10:11:41;131.33;;;29.03;;
64291;SDS011;50628;51.008;13.658;2023-03-01T10:16:46;54.30;;;21.00;;
64291;SDS011;50628;51.008;13.658;2023-03-01T10:21:54;35.37;;;20.00;;
64291;SDS011;50628;51.008;13.658;2023-03-01T10:27:03;28.87;;;20.77;;
64291;SDS011;50628;51.008;13.658;2023-03-01T10:32:09;46.83;;;20.43;;
64291;SDS011;50628;51.008;13.658;2023-03-01T10:37:14;37.20;;;20.27;;
64291;SDS011;50628;51.008;13.658;2023-03-01T10:42:19;41.57;;;20.37;;
64291;SDS011;50628;51.008;13.658;2023-03-01T10:47:27;38.77;;;21.63;;
64291;SDS011;50628;51.008;13.658;2023-03-01T10:52:32;35.00;;;19.23;;
64291;SDS011;50628;51.008;13.658;2023-03-01T10:57:36;52.60;;;21.47;;
64291;SDS011;50628;51.008;13.658;2023-03-01T11:02:39;39.80;;;19.23;;
64291;SDS011;50628;51.008;13.658;2023-03-01T11:07:47;29.07;;;18.50;;
64291;SDS011;50628;51.008;13.658;2023-03-01T11:12:51;39.97;;;19.73;;
64291;SDS011;50628;51.008;13.658;2023-03-01T11:17:54;36.07;;;19.13;;
64291;SDS011;50628;51.008;13.658;2023-03-01T11:22:59;30.67;;;18.13;;
64291;SDS011;50628;51.008;13.658;2023-03-01T11:28:05;34.93;;;20.03;;
64291;SDS011;50628;51.008;13.658;2023-03-01T11:33:12;38.53;;;19.00;;
64291;SDS011;50628;51.008;13.658;2023-03-01T11:38:22;32.77;;;19.80;;
64291;SDS011;50628;51.008;13.658;2023-03-01T11:43:33;37.10;;;17.60;;
64291;SDS011;50628;51.008;13.658;2023-03-01T11:48:44;38.43;;;20.63;;
64291;SDS011;50628;51.008;13.658;2023-03-01T11:53:59;40.90;;;17.60;;
64291;SDS011;50628;51.008;13.658;2023-03-01T11:59:19;40.70;;;17.17;;
64291;SDS011;50628;51.008;13.658;2023-03-01T12:10:09;25.10;;;14.87;;
64291;SDS011;50628;51.008;13.658;2023-03-01T12:20:51;31.13;;;14.57;;
64291;SDS011;50628;51.008;13.658;2023-03-01T12:26:04;21.27;;;13.10;;
64291;SDS011;50628;51.008;13.658;2023-03-01T12:37:05;17.03;;;11.30;;
64291;SDS011;50628;51.008;13.658;2023-03-01T12:42:26;22.97;;;11.37;;
64291;SDS011;50628;51.008;13.658;2023-03-01T12:47:40;24.20;;;12.70;;
64291;SDS011;50628;51.008;13.658;2023-03-01T12:52:53;15.70;;;10.53;;
64291;SDS011;50628;51.008;13.658;2023-03-01T12:58:03;29.60;;;16.97;;
64291;SDS011;50628;51.008;13.658;2023-03-01T13:03:14;19.77;;;12.83;;
64291;SDS011;50628;51.008;13.658;2023-03-01T13:08:26;26.83;;;13.67;;
64291;SDS011;50628;51.008;13.658;2023-03-01T13:13:35;17.97;;;12.63;;
64291;SDS011;50628;51.008;13.658;2023-03-01T13:18:37;24.90;;;12.57;;
64291;SDS011;50628;51.008;13.658;2023-03-01T13:23:39;30.97;;;14.43;;
64291;SDS011;50628;51.008;13.658;2023-03-01T13:28:48;27.00;;;15.33;;
64291;SDS011;50628;51.008;13.658;2023-03-01T13:33:56;26.23;;;15.10;;
64291;SDS011;50628;51.008;13.658;2023-03-01T13:38:58;26.30;;;15.47;;
64291;SDS011;50628;51.008;13.658;2023-03-01T13:44:03;19.50;;;13.63;;
64291;SDS011;50628;51.008;13.658;2023-03-01T13:49:14;21.27;;;13.77;;
64291;SDS011;50628;51.008;13.658;2023-03-01T13:54:25;27.17;;;15.10;;
64291;SDS011;50628;51.008;13.658;2023-03-01T13:59:31;41.33;;;18.00;;
64291;SDS011;50628;51.008;13.658;2023-03-01T14:04:33;35.40;;;15.60;;
64291;SDS011;50628;51.008;13.658;2023-03-01T14:09:37;31.90;;;15.63;;
64291;SDS011;50628;51.008;13.658;2023-03-01T14:20:08;20.63;;;14.97;;
64291;SDS011;50628;51.008;13.658;2023-03-01T14:25:17;26.17;;;16.27;;
64291;SDS011;50628;51.008;13.658;2023-03-01T14:30:24;34.13;;;15.57;;
64291;SDS011;50628;51.008;13.658;2023-03-01T14:35:29;29.03;;;20.57;;
64291;SDS011;50628;51.008;13.658;2023-03-01T14:40:34;21.87;;;15.07;;
64291;SDS011;50628;51.008;13.658;2023-03-01T14:45:38;26.80;;;15.83;;
64291;SDS011;50628;51.008;13.658;2023-03-01T14:50:41;21.90;;;15.50;;
64291;SDS011;50628;51.008;13.658;2023-03-01T14:55:45;25.80;;;15.60;;
64291;SDS011;50628;51.008;13.658;2023-03-01T15:00:51;61.87;;;19.63;;
64291;SDS011;50628;51.008;13.658;2023-03-01T15:05:56;27.87;;;16.57;;
64291;SDS011;50628;51.008;13.658;2023-03-01T15:11:01;27.93;;;15.77;;
64291;SDS011;50628;51.008;13.658;2023-03-01T15:16:09;26.63;;;16.80;;
64291;SDS011;50628;51.008;13.658;2023-03-01T15:21:15;21.27;;;16.40;;
64291;SDS011;50628;51.008;13.658;2023-03-01T15:26:23;30.50;;;16.10;;
64291;SDS011;50628;51.008;13.658;2023-03-01T15:31:28;32.27;;;17.00;;
64291;SDS011;50628;51.008;13.658;2023-03-01T15:36:42;25.10;;;16.13;;
64291;SDS011;50628;51.008;13.658;2023-03-01T15:41:46;31.13;;;16.43;;
64291;SDS011;50628;51.008;13.658;2023-03-01T15:46:50;26.57;;;16.97;;
64291;SDS011;50628;51.008;13.658;2023-03-01T15:51:53;23.43;;;15.70;;
64291;SDS011;50628;51.008;13.658;2023-03-01T15:56:56;24.73;;;16.27;;
64291;SDS011;50628;51.008;13.658;2023-03-01T16:02:00;35.13;;;18.90;;
64291;SDS011;50628;51.008;13.658;2023-03-01T16:07:02;29.40;;;17.20;;
64291;SDS011;50628;51.008;13.658;2023-03-01T16:12:05;28.13;;;17.23;;
64291;SDS011;50628;51.008;13.658;2023-03-01T16:17:08;32.47;;;16.87;;
64291;SDS011;50628;51.008;13.658;2023-03-01T16:22:11;29.03;;;17.80;;
64291;SDS011;50628;51.008;13.658;2023-03-01T16:27:13;47.00;;;19.17;;
64291;SDS011;50628;51.008;13.658;2023-03-01T16:32:17;24.87;;;16.63;;
64291;SDS011;50628;51.008;13.658;2023-03-01T16:37:18;29.33;;;15.93;;
64291;SDS011;50628;51.008;13.658;2023-03-01T16:42:22;20.77;;;14.57;;
64291;SDS011;50628;51.008;13.658;2023-03-01T16:47:25;42.57;;;17.30;;
64291;SDS011;50628;51.008;13.658;2023-03-01T16:52:27;38.63;;;17.70;;
64291;SDS011;50628;51.008;13.658;2023-03-01T16:57:29;67.33;;;21.77;;
64291;SDS011;50628;51.008;13.658;2023-03-01T17:02:32;43.73;;;23.47;;
64291;SDS011;50628;51.008;13.658;2023-03-01T17:07:34;41.40;;;20.73;;
64291;SDS011;50628;51.008;13.658;2023-03-01T17:12:36;35.30;;;18.87;;
64291;SDS011;50628;51.008;13.658;2023-03-01T17:17:41;39.97;;;21.50;;
64291;SDS011;50628;51.008;13.658;2023-03-01T17:22:42;31.40;;;19.37;;
64291;SDS011;50628;51.008;13.658;2023-03-01T17:27:44;32.10;;;17.33;;
64291;SDS011;50628;51.008;13.658;2023-03-01T17:32:48;33.97;;;18.40;;
64291;SDS011;50628;51.008;13.658;2023-03-01T17:37:50;31.17;;;17.83;;
64291;SDS011;50628;51.008;13.658;2023-03-01T17:42:51;33.57;;;19.23;;
64291;SDS011;50628;51.008;13.658;2023-03-01T17:47:55;38.93;;;21.30;;
64291;SDS011;50628;51.008;13.658;2023-03-01T17:52:57;40.47;;;21.10;;
64291;SDS011;50628;51.008;13.658;2023-03-01T17:57:58;40.73;;;22.40;;
64291;SDS011;50628;51.008;13.658;2023-03-01T18:03:02;37.43;;;22.43;;
64291;SDS011;50628;51.008;13.658;2023-03-01T18:08:04;37.20;;;21.00;;
64291;SDS011;50628;51.008;13.658;2023-03-01T18:13:06;41.77;;;21.13;;
64291;SDS011;50628;51.008;13.658;2023-03-01T18:18:09;38.30;;;21.10;;
64291;SDS011;50628;51.008;13.658;2023-03-01T18:23:11;47.17;;;22.87;;
64291;SDS011;50628;51.008;13.658;2023-03-01T18:28:13;35.13;;;21.77;;
64291;SDS011;50628;51.008;13.658;2023-03-01T18:33:17;43.37;;;20.87;;
64291;SDS011;50628;51.008;13.658;2023-03-01T18:38:18;44.70;;;22.17;;
64291;SDS011;50628;51.008;13.658;2023-03-01T18:43:21;40.47;;;22.10;;
64291;SDS011;50628;51.008;13.658;2023-03-01T18:48:24;48.07;;;22.43;;
64291;SDS011;50628;51.008;13.658;2023-03-01T18:53:27;49.87;;;21.57;;
64291;SDS011;50628;51.008;13.658;2023-03-01T18:58:28;36.73;;;21.63;;
64291;SDS011;50628;51.008;13.658;2023-03-01T19:03:32;58.20;;;24.33;;
64291;SDS011;50628;51.008;13.658;2023-03-01T19:08:34;51.13;;;24.50;;
64291;SDS011;50628;51.008;13.658;2023-03-01T19:13:37;34.30;;;23.27;;
64291;SDS011;50628;51.008;13.658;2023-03-01T19:18:42;37.47;;;24.10;;
64291;SDS011;50628;51.008;13.658;2023-03-01T19:23:49;44.87;;;27.63;;
64291;SDS011;50628;51.008;13.658;2023-03-01T19:28:53;36.03;;;23.67;;
64291;SDS011;50628;51.008;13.658;2023-03-01T19:33:56;44.60;;;24.13;;
64291;SDS011;50628;51.008;13.658;2023-03-01T19:38:59;37.80;;;23.27;;
64291;SDS011;50628;51.008;13.658;2023-03-01T19:44:02;41.57;;;24.17;;
64291;SDS011;50628;51.008;13.658;2023-03-01T19:49:06;41.50;;;24.80;;
64291;SDS011;50628;51.008;13.658;2023-03-01T19:54:08;46.70;;;30.27;;
64291;SDS011;50628;51.008;13.658;2023-03-01T19:59:11;46.40;;;28.20;;
64291;SDS011;50628;51.008;13.658;2023-03-01T20:04:15;46.73;;;23.27;;
64291;SDS011;50628;51.008;13.658;2023-03-01T20:09:17;43.83;;;24.37;;
64291;SDS011;50628;51.008;13.658;2023-03-01T20:14:19;39.57;;;23.50;;
64291;SDS011;50628;51.008;13.658;2023-03-01T20:19:22;48.43;;;24.90;;
64291;SDS011;50628;51.008;13.658;2023-03-01T20:24:24;47.63;;;29.00;;
64291;SDS011;50628;51.008;13.658;2023-03-01T20:29:26;53.60;;;30.53;;
64291;SDS011;50628;51.008;13.658;2023-03-01T20:34:29;57.53;;;29.73;;
64291;SDS011;50628;51.008;13.658;2023-03-01T20:39:31;68.60;;;31.57;;
64291;SDS011;50628;51.008;13.658;2023-03-01T20:44:33;40.43;;;23.83;;
64291;SDS011;50628;51.008;13.658;2023-03-01T20:49:43;37.03;;;23.20;;
64291;SDS011;50628;51.008;13.658;2023-03-01T20:54:45;51.43;;;28.03;;
64291;SDS011;50628;51.008;13.658;2023-03-01T20:59:47;57.83;;;30.03;;
64291;SDS011;50628;51.008;13.658;2023-03-01T21:04:51;51.63;;;28.27;;
64291;SDS011;50628;51.008;13.658;2023-03-01T21:09:53;46.90;;;23.83;;
64291;SDS011;50628;51.008;13.658;2023-03-01T21:14:54;40.83;;;26.37;;
64291;SDS011;50628;51.008;13.658;2023-03-01T21:19:58;37.10;;;23.27;;
64291;SDS011;50628;51.008;13.658;2023-03-01T21:24:59;44.27;;;25.80;;
64291;SDS011;50628;51.008;13.658;2023-03-01T21:30:01;39.17;;;25.30;;
64291;SDS011;50628;51.008;13.658;2023-03-01T21:35:06;41.30;;;24.37;;
64291;SDS011;50628;51.008;13.658;2023-03-01T21:40:09;42.90;;;26.13;;
64291;SDS011;50628;51.008;13.658;2023-03-01T21:45:11;42.57;;;24.43;;
64291;SDS011;50628;51.008;13.658;2023-03-01T21:50:15;43.07;;;24.53;;
64291;SDS011;50628;51.008;13.658;2023-03-01T21:55:17;39.33;;;24.60;;
64291;SDS011;50628;51.008;13.658;2023-03-01T22:00:19;45.80;;;26.80;;
64291;SDS011;50628;51.008;13.658;2023-03-01T22:05:23;42.10;;;22.83;;
64291;SDS011;50628;51.008;13.658;2023-03-01T22:10:25;38.13;;;23.63;;
64291;SDS011;50628;51.008;13.658;2023-03-01T22:15:28;44.33;;;24.50;;
64291;SDS011;50628;51.008;13.658;2023-03-01T22:20:31;43.03;;;25.97;;
64291;SDS011;50628;51.008;13.658;2023-03-01T22:25:38;43.43;;;23.60;;
64291;SDS011;50628;51.008;13.658;2023-03-01T22:30:41;40.13;;;26.20;;
64291;SDS011;50628;51.008;13.658;2023-03-01T22:35:46;41.80;;;22.63;;
64291;SDS011;50628;51.008;13.658;2023-03-01T22:40:54;38.20;;;23.30;;
64291;SDS011;50628;51.008;13.658;2023-03-01T22:45:56;35.57;;;23.97;;
64291;SDS011;50628;51.008;13.658;2023-03-01T22:51:00;38.63;;;23.53;;
64291;SDS011;50628;51.008;13.658;2023-03-01T22:56:09;39.67;;;23.77;;
64291;SDS011;50628;51.008;13.658;2023-03-01T23:01:12;39.77;;;23.60;;
64291;SDS011;50628;51.008;13.658;2023-03-01T23:06:17;41.17;;;23.43;;
64291;SDS011;50628;51.008;13.658;2023-03-01T23:11:20;41.07;;;23.47;;
64291;SDS011;50628;51.008;13.658;2023-03-01T23:16:23;46.70;;;23.30;;
64291;SDS011;50628;51.008;13.658;2023-03-01T23:21:26;38.40;;;22.50;;
64291;SDS011;50628;51.008;13.658;2023-03-01T23:26:28;37.40;;;20.97;;
64291;SDS011;50628;51.008;13.658;2023-03-01T23:31:30;42.37;;;22.80;;
64291;SDS011;50628;51.008;13.658;2023-03-01T23:36:33;34.20;;;22.77;;
64291;SDS011;50628;51.008;13.658;2023-03-01T23:41:35;38.57;;;21.60;;
64291;SDS011;50628;51.008;13.658;2023-03-01T23:46:37;39.17;;;22.20;;
64291;SDS011;50628;51.008;13.658;2023-03-01T23:51:40;32.30;;;20.27;;
64291;SDS011;50628;51.008;13.658;2023-03-01T23:56:43;33.00;;;20.10;;
